sensor_id;sensor_type;location;lat;lon;timestamp;P1;durP1;ratioP1;P2;durP2;ratioP2
16735;SDS011;17990;49.548;9.730;2023-11-21T00:02:26;4.90;;;1.27;;
16735;SDS011;17990;49.548;9.730;2023-11-21T00:04:53;3.43;;;1.10;;
16735;SDS011;17990;49.548;9.730;2023-11-21T00:07:20;2.00;;;0.77;;
16735;SDS011;17990;49.548;9.730;2023-11-21T00:09:47;5.50;;;1.47;;
16735;SDS011;17990;49.548;9.730;2023-11-21T00:12:14;3.67;;;1.10;;
16735;SDS011;17990;49.548;9.730;2023-11-21T00:14:41;3.97;;;0.90;;
16735;SDS011;17990;49.548;9.730;2023-11-21T00:17:08;6.27;;;1.00;;
16735;SDS011;17990;49.548;9.730;2023-11-21T00:19:36;3.30;;;1.10;;
16735;SDS011;17990;49.548;9.730;2023-11-21T00:22:03;5.17;;;1.30;;
16735;SDS011;17990;49.548;9.730;2023-11-21T00:24:31;5.27;;;1.30;;
16735;SDS011;17990;49.548;9.730;2023-11-21T00:26:58;4.93;;;1.13;;
16735;SDS011;17990;49.548;9.730;2023-11-21T00:29:24;3.67;;;1.30;;
16735;SDS011;17990;49.548;9.730;2023-11-21T00:31:51;3.50;;;1.17;;
16735;SDS011;17990;49.548;9.730;2023-11-21T00:34:18;3.67;;;1.27;;
16735;SDS011;17990;49.548;9.730;2023-11-21T00:36:46;4.77;;;1.20;;
16735;SDS011;17990;49.548;9.730;2023-11-21T00:39:13;4.47;;;1.20;;
16735;SDS011;17990;49.548;9.730;2023-11-21T00:41:40;7.30;;;1.80;;
16735;SDS011;17990;49.548;9.730;2023-11-21T00:44:07;5.63;;;1.53;;
16735;SDS011;17990;49.548;9.730;2023-11-21T00:46:34;3.13;;;1.40;;
16735;SDS011;17990;49.548;9.730;2023-11-21T00:49:00;4.53;;;1.30;;
16735;SDS011;17990;49.548;9.730;2023-11-21T00:51:29;5.00;;;1.30;;
16735;SDS011;17990;49.548;9.730;2023-11-21T00:53:57;3.63;;;1.20;;
16735;SDS011;17990;49.548;9.730;2023-11-21T00:56:24;2.53;;;1.20;;
16735;SDS011;17990;49.548;9.730;2023-11-21T00:58:51;3.23;;;1.47;;
16735;SDS011;17990;49.548;9.730;2023-11-21T01:01:18;4.57;;;1.27;;
16735;SDS011;17990;49.548;9.730;2023-11-21T01:03:45;3.73;;;1.00;;
16735;SDS011;17990;49.548;9.730;2023-11-21T01:06:12;5.33;;;1.63;;
16735;SDS011;17990;49.548;9.730;2023-11-21T01:08:39;6.97;;;1.20;;
16735;SDS011;17990;49.548;9.730;2023-11-21T01:11:07;5.40;;;1.20;;
16735;SDS011;17990;49.548;9.730;2023-11-21T01:13:36;4.73;;;1.70;;
16735;SDS011;17990;49.548;9.730;2023-11-21T01:16:04;4.47;;;1.40;;
16735;SDS011;17990;49.548;9.730;2023-11-21T01:18:31;5.70;;;1.20;;
16735;SDS011;17990;49.548;9.730;2023-11-21T01:20:58;5.37;;;1.10;;
16735;SDS011;17990;49.548;9.730;2023-11-21T01:23:25;3.97;;;1.20;;
16735;SDS011;17990;49.548;9.730;2023-11-21T01:25:53;5.90;;;1.50;;
16735;SDS011;17990;49.548;9.730;2023-11-21T01:28:23;4.90;;;1.10;;
16735;SDS011;17990;49.548;9.730;2023-11-21T01:30:49;6.00;;;1.20;;
16735;SDS011;17990;49.548;9.730;2023-11-21T01:33:16;6.20;;;1.50;;
16735;SDS011;17990;49.548;9.730;2023-11-21T01:35:43;5.83;;;1.60;;
16735;SDS011;17990;49.548;9.730;2023-11-21T01:38:11;4.60;;;1.20;;
16735;SDS011;17990;49.548;9.730;2023-11-21T01:40:39;4.67;;;1.30;;
16735;SDS011;17990;49.548;9.730;2023-11-21T01:43:05;3.47;;;1.37;;
16735;SDS011;17990;49.548;9.730;2023-11-21T01:45:35;5.27;;;1.50;;
16735;SDS011;17990;49.548;9.730;2023-11-21T01:48:01;4.13;;;1.20;;
16735;SDS011;17990;49.548;9.730;2023-11-21T01:50:32;5.90;;;1.13;;
16735;SDS011;17990;49.548;9.730;2023-11-21T01:52:59;2.90;;;1.20;;
16735;SDS011;17990;49.548;9.730;2023-11-21T01:55:26;5.97;;;1.43;;
16735;SDS011;17990;49.548;9.730;2023-11-21T01:57:55;4.70;;;1.37;;
16735;SDS011;17990;49.548;9.730;2023-11-21T02:00:22;4.40;;;1.30;;
16735;SDS011;17990;49.548;9.730;2023-11-21T02:02:51;5.07;;;1.30;;
16735;SDS011;17990;49.548;9.730;2023-11-21T02:05:18;5.27;;;1.30;;
16735;SDS011;17990;49.548;9.730;2023-11-21T02:07:46;3.40;;;1.17;;
16735;SDS011;17990;49.548;9.730;2023-11-21T02:10:14;4.73;;;1.30;;
16735;SDS011;17990;49.548;9.730;2023-11-21T02:12:41;5.13;;;1.13;;
16735;SDS011;17990;49.548;9.730;2023-11-21T02:15:08;3.73;;;1.40;;
16735;SDS011;17990;49.548;9.730;2023-11-21T02:17:40;3.33;;;1.10;;
16735;SDS011;17990;49.548;9.730;2023-11-21T02:20:10;4.07;;;1.10;;
16735;SDS011;17990;49.548;9.730;2023-11-21T02:22:40;6.60;;;1.20;;
16735;SDS011;17990;49.548;9.730;2023-11-21T02:25:09;2.63;;;1.33;;
16735;SDS011;17990;49.548;9.730;2023-11-21T02:27:36;4.33;;;1.23;;
16735;SDS011;17990;49.548;9.730;2023-11-21T02:30:03;4.27;;;1.10;;
16735;SDS011;17990;49.548;9.730;2023-11-21T02:32:30;3.30;;;1.10;;
16735;SDS011;17990;49.548;9.730;2023-11-21T02:34:57;5.30;;;1.20;;
16735;SDS011;17990;49.548;9.730;2023-11-21T02:37:26;4.10;;;1.23;;
16735;SDS011;17990;49.548;9.730;2023-11-21T02:39:53;3.10;;;1.10;;
16735;SDS011;17990;49.548;9.730;2023-11-21T02:42:21;3.40;;;1.17;;
16735;SDS011;17990;49.548;9.730;2023-11-21T02:44:48;6.50;;;1.10;;
16735;SDS011;17990;49.548;9.730;2023-11-21T02:47:14;4.97;;;1.40;;
16735;SDS011;17990;49.548;9.730;2023-11-21T02:49:41;4.83;;;0.97;;
16735;SDS011;17990;49.548;9.730;2023-11-21T02:52:08;3.57;;;1.30;;
16735;SDS011;17990;49.548;9.730;2023-11-21T02:54:34;7.67;;;1.40;;
16735;SDS011;17990;49.548;9.730;2023-11-21T02:57:01;3.43;;;1.30;;
16735;SDS011;17990;49.548;9.730;2023-11-21T02:59:29;2.83;;;1.13;;
16735;SDS011;17990;49.548;9.730;2023-11-21T03:01:56;2.40;;;0.90;;
16735;SDS011;17990;49.548;9.730;2023-11-21T03:04:23;3.17;;;1.13;;
16735;SDS011;17990;49.548;9.730;2023-11-21T03:06:51;3.23;;;1.00;;
16735;SDS011;17990;49.548;9.730;2023-11-21T03:09:17;3.97;;;1.30;;
16735;SDS011;17990;49.548;9.730;2023-11-21T03:11:44;2.80;;;1.20;;
16735;SDS011;17990;49.548;9.730;2023-11-21T03:14:11;4.17;;;1.20;;
16735;SDS011;17990;49.548;9.730;2023-11-21T03:16:39;3.83;;;1.10;;
16735;SDS011;17990;49.548;9.730;2023-11-21T03:19:06;3.87;;;1.03;;
16735;SDS011;17990;49.548;9.730;2023-11-21T03:21:34;4.43;;;1.30;;
16735;SDS011;17990;49.548;9.730;2023-11-21T03:24:01;4.63;;;1.80;;
16735;SDS011;17990;49.548;9.730;2023-11-21T03:26:27;2.37;;;1.10;;
16735;SDS011;17990;49.548;9.730;2023-11-21T03:28:54;4.80;;;1.33;;
16735;SDS011;17990;49.548;9.730;2023-11-21T03:31:21;5.30;;;1.20;;
16735;SDS011;17990;49.548;9.730;2023-11-21T03:33:49;3.53;;;1.10;;
16735;SDS011;17990;49.548;9.730;2023-11-21T03:36:17;2.27;;;1.10;;
16735;SDS011;17990;49.548;9.730;2023-11-21T03:38:44;2.67;;;1.20;;
16735;SDS011;17990;49.548;9.730;2023-11-21T03:41:11;4.33;;;1.30;;
16735;SDS011;17990;49.548;9.730;2023-11-21T03:43:37;4.13;;;1.40;;
16735;SDS011;17990;49.548;9.730;2023-11-21T03:46:04;3.80;;;1.70;;
16735;SDS011;17990;49.548;9.730;2023-11-21T03:48:32;2.63;;;1.50;;
16735;SDS011;17990;49.548;9.730;2023-11-21T03:51:00;2.40;;;1.53;;
16735;SDS011;17990;49.548;9.730;2023-11-21T03:53:27;2.43;;;1.37;;
16735;SDS011;17990;49.548;9.730;2023-11-21T03:55:53;2.80;;;1.53;;
16735;SDS011;17990;49.548;9.730;2023-11-21T03:58:20;2.97;;;1.30;;
16735;SDS011;17990;49.548;9.730;2023-11-21T04:00:47;3.87;;;1.70;;
16735;SDS011;17990;49.548;9.730;2023-11-21T04:03:14;2.50;;;1.00;;
16735;SDS011;17990;49.548;9.730;2023-11-21T04:05:41;2.90;;;1.13;;
16735;SDS011;17990;49.548;9.730;2023-11-21T04:08:09;2.63;;;1.30;;
16735;SDS011;17990;49.548;9.730;2023-11-21T04:10:36;3.77;;;1.30;;
16735;SDS011;17990;49.548;9.730;2023-11-21T04:13:04;1.40;;;1.20;;
16735;SDS011;17990;49.548;9.730;2023-11-21T04:15:31;2.30;;;0.90;;
16735;SDS011;17990;49.548;9.730;2023-11-21T04:17:58;1.67;;;1.27;;
16735;SDS011;17990;49.548;9.730;2023-11-21T04:20:25;1.80;;;1.00;;
16735;SDS011;17990;49.548;9.730;2023-11-21T04:22:52;2.20;;;0.87;;
16735;SDS011;17990;49.548;9.730;2023-11-21T04:25:20;3.50;;;1.13;;
16735;SDS011;17990;49.548;9.730;2023-11-21T04:27:48;3.63;;;1.13;;
16735;SDS011;17990;49.548;9.730;2023-11-21T04:30:15;2.37;;;1.10;;
16735;SDS011;17990;49.548;9.730;2023-11-21T04:32:42;1.90;;;0.90;;
16735;SDS011;17990;49.548;9.730;2023-11-21T04:35:08;2.03;;;1.30;;
16735;SDS011;17990;49.548;9.730;2023-11-21T04:37:35;1.70;;;0.97;;
16735;SDS011;17990;49.548;9.730;2023-11-21T04:40:03;4.30;;;1.43;;
16735;SDS011;17990;49.548;9.730;2023-11-21T04:42:33;2.67;;;1.23;;
16735;SDS011;17990;49.548;9.730;2023-11-21T04:45:01;5.37;;;1.40;;
16735;SDS011;17990;49.548;9.730;2023-11-21T04:47:30;2.10;;;1.20;;
16735;SDS011;17990;49.548;9.730;2023-11-21T04:49:56;3.93;;;1.20;;
16735;SDS011;17990;49.548;9.730;2023-11-21T04:52:23;2.40;;;1.50;;
16735;SDS011;17990;49.548;9.730;2023-11-21T04:54:50;3.60;;;1.67;;
16735;SDS011;17990;49.548;9.730;2023-11-21T04:57:19;4.00;;;2.07;;
16735;SDS011;17990;49.548;9.730;2023-11-21T04:59:48;4.80;;;2.23;;
16735;SDS011;17990;49.548;9.730;2023-11-21T05:02:15;2.00;;;1.40;;
16735;SDS011;17990;49.548;9.730;2023-11-21T05:04:44;12.30;;;7.67;;
16735;SDS011;17990;49.548;9.730;2023-11-21T05:07:11;15.30;;;9.73;;
16735;SDS011;17990;49.548;9.730;2023-11-21T05:09:40;7.27;;;4.77;;
16735;SDS011;17990;49.548;9.730;2023-11-21T05:12:09;5.13;;;3.13;;
16735;SDS011;17990;49.548;9.730;2023-11-21T05:14:35;7.67;;;3.17;;
16735;SDS011;17990;49.548;9.730;2023-11-21T05:17:04;6.87;;;3.70;;
16735;SDS011;17990;49.548;9.730;2023-11-21T05:19:32;4.20;;;2.40;;
16735;SDS011;17990;49.548;9.730;2023-11-21T05:22:00;4.40;;;2.80;;
16735;SDS011;17990;49.548;9.730;2023-11-21T05:24:26;5.93;;;3.43;;
16735;SDS011;17990;49.548;9.730;2023-11-21T05:26:53;6.37;;;3.70;;
16735;SDS011;17990;49.548;9.730;2023-11-21T05:29:21;4.47;;;2.63;;
16735;SDS011;17990;49.548;9.730;2023-11-21T05:31:47;5.53;;;3.07;;
16735;SDS011;17990;49.548;9.730;2023-11-21T05:34:15;4.43;;;3.10;;
16735;SDS011;17990;49.548;9.730;2023-11-21T05:36:42;6.03;;;2.87;;
16735;SDS011;17990;49.548;9.730;2023-11-21T05:39:10;3.73;;;2.03;;
16735;SDS011;17990;49.548;9.730;2023-11-21T05:41:37;3.87;;;1.87;;
16735;SDS011;17990;49.548;9.730;2023-11-21T05:44:04;4.83;;;2.37;;
16735;SDS011;17990;49.548;9.730;2023-11-21T05:46:31;3.17;;;1.90;;
16735;SDS011;17990;49.548;9.730;2023-11-21T05:48:58;5.40;;;2.20;;
16735;SDS011;17990;49.548;9.730;2023-11-21T05:51:26;5.10;;;2.07;;
16735;SDS011;17990;49.548;9.730;2023-11-21T05:53:52;2.50;;;1.90;;
16735;SDS011;17990;49.548;9.730;2023-11-21T05:56:19;3.17;;;1.90;;
16735;SDS011;17990;49.548;9.730;2023-11-21T05:58:46;3.73;;;1.80;;
16735;SDS011;17990;49.548;9.730;2023-11-21T06:01:12;3.93;;;1.97;;
16735;SDS011;17990;49.548;9.730;2023-11-21T06:03:39;8.93;;;4.40;;
16735;SDS011;17990;49.548;9.730;2023-11-21T06:06:06;10.27;;;5.53;;
16735;SDS011;17990;49.548;9.730;2023-11-21T06:08:35;6.47;;;3.23;;
16735;SDS011;17990;49.548;9.730;2023-11-21T06:11:01;6.30;;;2.83;;
16735;SDS011;17990;49.548;9.730;2023-11-21T06:13:28;6.87;;;2.80;;
16735;SDS011;17990;49.548;9.730;2023-11-21T06:15:55;4.97;;;2.33;;
16735;SDS011;17990;49.548;9.730;2023-11-21T06:18:22;4.63;;;2.73;;
16735;SDS011;17990;49.548;9.730;2023-11-21T06:20:49;4.13;;;2.70;;
16735;SDS011;17990;49.548;9.730;2023-11-21T06:23:17;4.27;;;2.40;;
16735;SDS011;17990;49.548;9.730;2023-11-21T06:25:45;7.53;;;3.03;;
16735;SDS011;17990;49.548;9.730;2023-11-21T06:28:12;3.13;;;2.40;;
16735;SDS011;17990;49.548;9.730;2023-11-21T06:30:42;3.07;;;1.90;;
16735;SDS011;17990;49.548;9.730;2023-11-21T06:33:09;6.03;;;3.07;;
16735;SDS011;17990;49.548;9.730;2023-11-21T06:35:36;3.07;;;1.90;;
16735;SDS011;17990;49.548;9.730;2023-11-21T06:38:02;3.53;;;1.87;;
16735;SDS011;17990;49.548;9.730;2023-11-21T06:40:29;2.57;;;1.73;;
16735;SDS011;17990;49.548;9.730;2023-11-21T06:42:57;5.70;;;2.33;;
16735;SDS011;17990;49.548;9.730;2023-11-21T06:45:24;3.67;;;2.10;;
16735;SDS011;17990;49.548;9.730;2023-11-21T06:47:51;3.10;;;2.47;;
16735;SDS011;17990;49.548;9.730;2023-11-21T06:50:18;5.53;;;2.70;;
16735;SDS011;17990;49.548;9.730;2023-11-21T06:52:45;5.93;;;3.67;;
16735;SDS011;17990;49.548;9.730;2023-11-21T06:55:12;6.87;;;2.67;;
16735;SDS011;17990;49.548;9.730;2023-11-21T06:57:38;5.07;;;2.97;;
16735;SDS011;17990;49.548;9.730;2023-11-21T07:00:07;3.93;;;2.40;;
16735;SDS011;17990;49.548;9.730;2023-11-21T07:02:35;5.50;;;2.60;;
16735;SDS011;17990;49.548;9.730;2023-11-21T07:05:01;5.57;;;2.83;;
16735;SDS011;17990;49.548;9.730;2023-11-21T07:07:28;4.37;;;2.53;;
16735;SDS011;17990;49.548;9.730;2023-11-21T07:09:55;4.43;;;2.57;;
16735;SDS011;17990;49.548;9.730;2023-11-21T07:12:22;3.90;;;2.47;;
16735;SDS011;17990;49.548;9.730;2023-11-21T07:14:50;4.93;;;2.50;;
16735;SDS011;17990;49.548;9.730;2023-11-21T07:17:18;3.77;;;2.17;;
16735;SDS011;17990;49.548;9.730;2023-11-21T07:19:48;5.40;;;2.67;;
16735;SDS011;17990;49.548;9.730;2023-11-21T07:22:15;5.03;;;3.37;;
16735;SDS011;17990;49.548;9.730;2023-11-21T07:24:47;4.77;;;3.13;;
16735;SDS011;17990;49.548;9.730;2023-11-21T07:27:14;6.57;;;3.50;;
16735;SDS011;17990;49.548;9.730;2023-11-21T07:29:41;4.80;;;2.90;;
16735;SDS011;17990;49.548;9.730;2023-11-21T07:32:08;5.40;;;3.70;;
16735;SDS011;17990;49.548;9.730;2023-11-21T07:34:36;7.73;;;3.83;;
16735;SDS011;17990;49.548;9.730;2023-11-21T07:37:03;4.53;;;3.87;;
16735;SDS011;17990;49.548;9.730;2023-11-21T07:39:30;4.27;;;3.60;;
16735;SDS011;17990;49.548;9.730;2023-11-21T07:41:56;3.73;;;3.13;;
16735;SDS011;17990;49.548;9.730;2023-11-21T07:44:23;6.83;;;6.13;;
16735;SDS011;17990;49.548;9.730;2023-11-21T07:46:51;6.97;;;4.83;;
16735;SDS011;17990;49.548;9.730;2023-11-21T07:49:22;4.73;;;4.10;;
16735;SDS011;17990;49.548;9.730;2023-11-21T07:51:50;3.77;;;2.90;;
16735;SDS011;17990;49.548;9.730;2023-11-21T07:54:17;7.20;;;4.53;;
16735;SDS011;17990;49.548;9.730;2023-11-21T07:56:44;4.67;;;2.70;;
16735;SDS011;17990;49.548;9.730;2023-11-21T07:59:11;3.20;;;2.43;;
16735;SDS011;17990;49.548;9.730;2023-11-21T08:01:39;3.40;;;2.10;;
16735;SDS011;17990;49.548;9.730;2023-11-21T08:04:08;3.43;;;2.70;;
16735;SDS011;17990;49.548;9.730;2023-11-21T08:06:35;3.27;;;2.57;;
16735;SDS011;17990;49.548;9.730;2023-11-21T08:09:03;3.33;;;2.67;;
16735;SDS011;17990;49.548;9.730;2023-11-21T08:11:29;3.27;;;2.23;;
16735;SDS011;17990;49.548;9.730;2023-11-21T08:13:58;2.27;;;1.83;;
16735;SDS011;17990;49.548;9.730;2023-11-21T08:16:25;2.43;;;1.70;;
16735;SDS011;17990;49.548;9.730;2023-11-21T08:18:52;5.50;;;2.33;;
16735;SDS011;17990;49.548;9.730;2023-11-21T08:21:19;3.23;;;2.20;;
16735;SDS011;17990;49.548;9.730;2023-11-21T08:23:46;3.30;;;2.03;;
16735;SDS011;17990;49.548;9.730;2023-11-21T08:26:19;4.17;;;1.90;;
16735;SDS011;17990;49.548;9.730;2023-11-21T08:28:46;1.63;;;1.43;;
16735;SDS011;17990;49.548;9.730;2023-11-21T08:31:13;3.07;;;1.33;;
16735;SDS011;17990;49.548;9.730;2023-11-21T08:33:40;2.07;;;1.23;;
16735;SDS011;17990;49.548;9.730;2023-11-21T08:36:07;2.10;;;1.10;;
16735;SDS011;17990;49.548;9.730;2023-11-21T08:38:36;1.07;;;0.97;;
16735;SDS011;17990;49.548;9.730;2023-11-21T08:41:03;2.83;;;0.70;;
16735;SDS011;17990;49.548;9.730;2023-11-21T08:43:33;2.10;;;0.90;;
16735;SDS011;17990;49.548;9.730;2023-11-21T08:46:00;1.13;;;0.70;;
16735;SDS011;17990;49.548;9.730;2023-11-21T08:48:28;1.70;;;0.83;;
16735;SDS011;17990;49.548;9.730;2023-11-21T08:50:54;0.70;;;0.60;;
16735;SDS011;17990;49.548;9.730;2023-11-21T08:53:21;0.80;;;0.73;;
16735;SDS011;17990;49.548;9.730;2023-11-21T08:55:48;1.30;;;1.00;;
16735;SDS011;17990;49.548;9.730;2023-11-21T08:58:15;1.97;;;1.10;;
16735;SDS011;17990;49.548;9.730;2023-11-21T09:00:43;0.90;;;0.80;;
16735;SDS011;17990;49.548;9.730;2023-11-21T09:03:11;2.90;;;1.03;;
16735;SDS011;17990;49.548;9.730;2023-11-21T09:05:38;1.50;;;1.17;;
16735;SDS011;17990;49.548;9.730;2023-11-21T09:08:04;2.10;;;1.20;;
16735;SDS011;17990;49.548;9.730;2023-11-21T09:10:31;2.60;;;1.80;;
16735;SDS011;17990;49.548;9.730;2023-11-21T09:13:00;2.73;;;1.80;;
16735;SDS011;17990;49.548;9.730;2023-11-21T09:15:27;4.83;;;2.20;;
16735;SDS011;17990;49.548;9.730;2023-11-21T09:17:56;2.43;;;1.43;;
16735;SDS011;17990;49.548;9.730;2023-11-21T09:20:23;3.50;;;1.20;;
16735;SDS011;17990;49.548;9.730;2023-11-21T09:22:50;2.97;;;1.50;;
16735;SDS011;17990;49.548;9.730;2023-11-21T09:25:16;2.60;;;1.37;;
16735;SDS011;17990;49.548;9.730;2023-11-21T09:27:44;2.33;;;1.30;;
16735;SDS011;17990;49.548;9.730;2023-11-21T09:30:11;3.97;;;1.20;;
16735;SDS011;17990;49.548;9.730;2023-11-21T09:32:39;1.93;;;1.23;;
16735;SDS011;17990;49.548;9.730;2023-11-21T09:35:08;1.90;;;1.30;;
16735;SDS011;17990;49.548;9.730;2023-11-21T09:37:35;2.97;;;1.97;;
16735;SDS011;17990;49.548;9.730;2023-11-21T09:40:04;2.00;;;1.10;;
16735;SDS011;17990;49.548;9.730;2023-11-21T09:42:38;1.73;;;1.20;;
16735;SDS011;17990;49.548;9.730;2023-11-21T09:45:09;3.37;;;1.23;;
16735;SDS011;17990;49.548;9.730;2023-11-21T09:47:43;3.07;;;1.33;;
16735;SDS011;17990;49.548;9.730;2023-11-21T09:50:11;1.67;;;1.23;;
16735;SDS011;17990;49.548;9.730;2023-11-21T09:52:44;2.90;;;1.33;;
16735;SDS011;17990;49.548;9.730;2023-11-21T09:55:18;2.43;;;1.10;;
16735;SDS011;17990;49.548;9.730;2023-11-21T09:57:46;2.67;;;1.03;;
16735;SDS011;17990;49.548;9.730;2023-11-21T10:00:14;4.87;;;1.50;;
16735;SDS011;17990;49.548;9.730;2023-11-21T10:02:43;2.30;;;1.30;;
16735;SDS011;17990;49.548;9.730;2023-11-21T10:05:09;3.07;;;1.57;;
16735;SDS011;17990;49.548;9.730;2023-11-21T10:07:38;2.90;;;1.70;;
16735;SDS011;17990;49.548;9.730;2023-11-21T10:10:06;2.50;;;1.53;;
16735;SDS011;17990;49.548;9.730;2023-11-21T10:12:34;1.83;;;1.50;;
16735;SDS011;17990;49.548;9.730;2023-11-21T10:15:03;1.77;;;1.27;;
16735;SDS011;17990;49.548;9.730;2023-11-21T10:17:36;2.20;;;1.40;;
16735;SDS011;17990;49.548;9.730;2023-11-21T10:20:06;2.83;;;1.17;;
16735;SDS011;17990;49.548;9.730;2023-11-21T10:22:38;2.80;;;1.30;;
16735;SDS011;17990;49.548;9.730;2023-11-21T10:25:06;1.87;;;1.00;;
16735;SDS011;17990;49.548;9.730;2023-11-21T10:27:33;3.03;;;1.20;;
16735;SDS011;17990;49.548;9.730;2023-11-21T10:30:00;2.10;;;1.07;;
16735;SDS011;17990;49.548;9.730;2023-11-21T10:32:28;1.57;;;1.17;;
16735;SDS011;17990;49.548;9.730;2023-11-21T10:34:57;1.47;;;1.37;;
16735;SDS011;17990;49.548;9.730;2023-11-21T10:37:25;1.23;;;1.13;;
16735;SDS011;17990;49.548;9.730;2023-11-21T10:39:58;2.37;;;1.20;;
16735;SDS011;17990;49.548;9.730;2023-11-21T10:42:25;2.07;;;1.60;;
16735;SDS011;17990;49.548;9.730;2023-11-21T10:44:52;4.37;;;1.23;;
16735;SDS011;17990;49.548;9.730;2023-11-21T10:47:19;2.27;;;1.60;;
16735;SDS011;17990;49.548;9.730;2023-11-21T10:49:48;2.20;;;1.50;;
16735;SDS011;17990;49.548;9.730;2023-11-21T10:52:15;3.40;;;2.47;;
16735;SDS011;17990;49.548;9.730;2023-11-21T10:54:45;2.50;;;1.60;;
16735;SDS011;17990;49.548;9.730;2023-11-21T10:57:15;3.47;;;1.80;;
16735;SDS011;17990;49.548;9.730;2023-11-21T10:59:46;3.07;;;2.27;;
16735;SDS011;17990;49.548;9.730;2023-11-21T11:02:16;2.97;;;2.40;;
16735;SDS011;17990;49.548;9.730;2023-11-21T11:04:50;4.60;;;3.00;;
16735;SDS011;17990;49.548;9.730;2023-11-21T11:07:18;4.63;;;3.30;;
16735;SDS011;17990;49.548;9.730;2023-11-21T11:09:47;6.17;;;3.67;;
16735;SDS011;17990;49.548;9.730;2023-11-21T11:12:15;6.60;;;3.67;;
16735;SDS011;17990;49.548;9.730;2023-11-21T11:14:44;6.57;;;4.33;;
16735;SDS011;17990;49.548;9.730;2023-11-21T11:17:11;8.07;;;4.20;;
16735;SDS011;17990;49.548;9.730;2023-11-21T11:19:38;5.90;;;3.70;;
16735;SDS011;17990;49.548;9.730;2023-11-21T11:22:08;5.43;;;4.07;;
16735;SDS011;17990;49.548;9.730;2023-11-21T11:24:47;4.93;;;3.40;;
16735;SDS011;17990;49.548;9.730;2023-11-21T11:27:30;5.73;;;3.40;;
16735;SDS011;17990;49.548;9.730;2023-11-21T11:30:06;7.20;;;4.17;;
16735;SDS011;17990;49.548;9.730;2023-11-21T11:32:43;6.33;;;4.40;;
16735;SDS011;17990;49.548;9.730;2023-11-21T11:35:23;6.80;;;3.77;;
16735;SDS011;17990;49.548;9.730;2023-11-21T11:37:57;5.80;;;4.80;;
16735;SDS011;17990;49.548;9.730;2023-11-21T11:40:25;7.80;;;5.60;;
16735;SDS011;17990;49.548;9.730;2023-11-21T11:43:06;12.00;;;9.17;;
16735;SDS011;17990;49.548;9.730;2023-11-21T11:45:34;9.20;;;6.83;;
16735;SDS011;17990;49.548;9.730;2023-11-21T11:48:00;7.50;;;5.50;;
16735;SDS011;17990;49.548;9.730;2023-11-21T11:50:28;5.07;;;4.03;;
16735;SDS011;17990;49.548;9.730;2023-11-21T11:52:57;5.33;;;4.30;;
16735;SDS011;17990;49.548;9.730;2023-11-21T11:55:38;7.73;;;4.27;;
16735;SDS011;17990;49.548;9.730;2023-11-21T11:58:06;5.33;;;4.30;;
16735;SDS011;17990;49.548;9.730;2023-11-21T12:00:34;5.70;;;3.90;;
16735;SDS011;17990;49.548;9.730;2023-11-21T12:03:05;6.27;;;4.53;;
16735;SDS011;17990;49.548;9.730;2023-11-21T12:05:33;7.07;;;3.67;;
16735;SDS011;17990;49.548;9.730;2023-11-21T12:08:04;6.27;;;3.63;;
16735;SDS011;17990;49.548;9.730;2023-11-21T12:10:32;5.63;;;3.30;;
16735;SDS011;17990;49.548;9.730;2023-11-21T12:13:01;3.97;;;3.23;;
16735;SDS011;17990;49.548;9.730;2023-11-21T12:15:31;8.20;;;2.80;;
16735;SDS011;17990;49.548;9.730;2023-11-21T12:17:58;3.40;;;2.30;;
16735;SDS011;17990;49.548;9.730;2023-11-21T12:20:25;4.70;;;2.30;;
16735;SDS011;17990;49.548;9.730;2023-11-21T12:22:53;3.77;;;2.53;;
16735;SDS011;17990;49.548;9.730;2023-11-21T12:25:21;2.40;;;2.17;;
16735;SDS011;17990;49.548;9.730;2023-11-21T12:27:49;3.30;;;2.13;;
16735;SDS011;17990;49.548;9.730;2023-11-21T12:30:17;5.73;;;2.30;;
16735;SDS011;17990;49.548;9.730;2023-11-21T12:32:47;2.70;;;2.20;;
16735;SDS011;17990;49.548;9.730;2023-11-21T12:35:16;5.10;;;2.53;;
16735;SDS011;17990;49.548;9.730;2023-11-21T12:37:44;4.90;;;1.90;;
16735;SDS011;17990;49.548;9.730;2023-11-21T12:40:12;3.73;;;1.87;;
16735;SDS011;17990;49.548;9.730;2023-11-21T12:42:40;4.33;;;1.60;;
16735;SDS011;17990;49.548;9.730;2023-11-21T12:45:08;2.50;;;1.50;;
16735;SDS011;17990;49.548;9.730;2023-11-21T12:47:41;2.20;;;1.43;;
16735;SDS011;17990;49.548;9.730;2023-11-21T12:50:09;2.40;;;1.50;;
16735;SDS011;17990;49.548;9.730;2023-11-21T12:52:40;2.50;;;1.40;;
16735;SDS011;17990;49.548;9.730;2023-11-21T12:55:13;3.40;;;1.43;;
16735;SDS011;17990;49.548;9.730;2023-11-21T12:57:42;3.00;;;1.33;;
16735;SDS011;17990;49.548;9.730;2023-11-21T13:00:10;3.17;;;1.47;;
16735;SDS011;17990;49.548;9.730;2023-11-21T13:02:50;2.00;;;1.20;;
16735;SDS011;17990;49.548;9.730;2023-11-21T13:05:24;3.63;;;1.50;;
16735;SDS011;17990;49.548;9.730;2023-11-21T13:07:52;2.23;;;1.47;;
16735;SDS011;17990;49.548;9.730;2023-11-21T13:10:22;2.80;;;1.40;;
16735;SDS011;17990;49.548;9.730;2023-11-21T13:12:52;2.93;;;1.20;;
16735;SDS011;17990;49.548;9.730;2023-11-21T13:15:20;3.60;;;1.60;;
16735;SDS011;17990;49.548;9.730;2023-11-21T13:17:46;4.73;;;1.87;;
16735;SDS011;17990;49.548;9.730;2023-11-21T13:20:15;2.30;;;1.17;;
16735;SDS011;17990;49.548;9.730;2023-11-21T13:22:49;2.40;;;1.30;;
16735;SDS011;17990;49.548;9.730;2023-11-21T13:25:19;3.07;;;2.07;;
16735;SDS011;17990;49.548;9.730;2023-11-21T13:27:47;5.87;;;2.30;;
16735;SDS011;17990;49.548;9.730;2023-11-21T13:30:14;4.03;;;1.87;;
16735;SDS011;17990;49.548;9.730;2023-11-21T13:32:41;6.47;;;2.30;;
16735;SDS011;17990;49.548;9.730;2023-11-21T13:35:08;3.60;;;1.73;;
16735;SDS011;17990;49.548;9.730;2023-11-21T13:37:45;3.57;;;1.60;;
16735;SDS011;17990;49.548;9.730;2023-11-21T13:40:15;4.80;;;1.40;;
16735;SDS011;17990;49.548;9.730;2023-11-21T13:42:47;2.27;;;1.27;;
16735;SDS011;17990;49.548;9.730;2023-11-21T13:45:18;3.20;;;1.10;;
16735;SDS011;17990;49.548;9.730;2023-11-21T13:47:45;2.33;;;1.10;;
16735;SDS011;17990;49.548;9.730;2023-11-21T13:50:12;4.30;;;1.07;;
16735;SDS011;17990;49.548;9.730;2023-11-21T13:52:47;2.80;;;0.90;;
16735;SDS011;17990;49.548;9.730;2023-11-21T13:55:15;3.57;;;0.80;;
16735;SDS011;17990;49.548;9.730;2023-11-21T13:57:43;2.67;;;0.83;;
16735;SDS011;17990;49.548;9.730;2023-11-21T14:00:14;2.47;;;0.83;;
16735;SDS011;17990;49.548;9.730;2023-11-21T14:03:03;1.97;;;0.70;;
16735;SDS011;17990;49.548;9.730;2023-11-21T14:05:34;1.80;;;0.83;;
16735;SDS011;17990;49.548;9.730;2023-11-21T14:08:00;1.20;;;0.63;;
16735;SDS011;17990;49.548;9.730;2023-11-21T14:10:31;2.70;;;0.83;;
16735;SDS011;17990;49.548;9.730;2023-11-21T14:13:05;1.90;;;1.03;;
16735;SDS011;17990;49.548;9.730;2023-11-21T14:15:32;3.50;;;1.00;;
16735;SDS011;17990;49.548;9.730;2023-11-21T14:18:03;5.93;;;1.73;;
16735;SDS011;17990;49.548;9.730;2023-11-21T14:20:32;6.57;;;2.40;;
16735;SDS011;17990;49.548;9.730;2023-11-21T14:23:01;3.27;;;1.37;;
16735;SDS011;17990;49.548;9.730;2023-11-21T14:25:28;1.80;;;0.90;;
16735;SDS011;17990;49.548;9.730;2023-11-21T14:27:56;1.90;;;0.77;;
16735;SDS011;17990;49.548;9.730;2023-11-21T14:30:23;1.80;;;0.90;;
16735;SDS011;17990;49.548;9.730;2023-11-21T14:32:50;2.17;;;0.80;;
16735;SDS011;17990;49.548;9.730;2023-11-21T14:35:16;3.07;;;0.80;;
16735;SDS011;17990;49.548;9.730;2023-11-21T14:37:44;2.07;;;0.90;;
16735;SDS011;17990;49.548;9.730;2023-11-21T14:40:12;2.90;;;0.80;;
16735;SDS011;17990;49.548;9.730;2023-11-21T14:42:41;4.60;;;1.50;;
16735;SDS011;17990;49.548;9.730;2023-11-21T14:45:10;7.37;;;4.33;;
16735;SDS011;17990;49.548;9.730;2023-11-21T14:47:38;27.10;;;11.53;;
16735;SDS011;17990;49.548;9.730;2023-11-21T14:50:09;31.43;;;14.03;;
16735;SDS011;17990;49.548;9.730;2023-11-21T14:53:04;36.83;;;15.73;;
16735;SDS011;17990;49.548;9.730;2023-11-21T14:55:31;7.17;;;4.50;;